createdAt,value
2019-03-23T00:00:52.698Z,23.55
2019-03-23T00:03:20.029Z,30.52
2019-03-23T00:05:47.387Z,28.52
2019-03-23T00:08:14.759Z,29.48
2019-03-23T00:10:42.094Z,29.20
2019-03-23T00:13:09.451Z,33.65
2019-03-23T00:15:36.498Z,33.75
2019-03-23T00:18:03.817Z,29.45
2019-03-23T00:20:31.230Z,30.40
2019-03-23T00:22:58.564Z,30.97
2019-03-23T00:25:25.866Z,29.18
2019-03-23T00:27:52.974Z,34.90
2019-03-23T00:30:20.030Z,32.73
2019-03-23T00:32:47.079Z,35.70
2019-03-23T00:35:14.415Z,32.73
2019-03-23T00:37:42.681Z,33.00
2019-03-23T00:40:09.979Z,32.38
2019-03-23T00:42:37.019Z,34.43
2019-03-23T00:45:04.064Z,31.95
2019-03-23T00:47:31.350Z,30.30
2019-03-23T00:49:58.401Z,36.28
2019-03-23T00:52:25.443Z,30.88
2019-03-23T00:54:52.489Z,30.95
2019-03-23T00:57:19.527Z,33.53
2019-03-23T00:59:46.581Z,35.40
2019-03-23T01:02:13.859Z,35.78
2019-03-23T01:04:40.907Z,34.27
2019-03-23T01:07:08.196Z,32.50
2019-03-23T01:09:35.229Z,32.10
2019-03-23T01:12:02.530Z,30.27
2019-03-23T01:14:29.557Z,34.43
2019-03-23T01:16:56.615Z,33.13
2019-03-23T01:19:23.894Z,32.10
2019-03-23T01:21:50.948Z,35.00
2019-03-23T01:24:17.982Z,35.92
2019-03-23T01:26:45.392Z,31.77
2019-03-23T01:29:12.441Z,39.73
2019-03-23T01:31:39.793Z,36.58
2019-03-23T01:34:06.911Z,33.53
2019-03-23T01:36:33.974Z,29.18
2019-03-23T01:39:01.003Z,32.93
2019-03-23T01:41:30.138Z,34.92
2019-03-23T01:43:57.183Z,32.58
2019-03-23T01:46:24.574Z,35.70
2019-03-23T01:48:51.613Z,31.27
2019-03-23T01:51:18.739Z,32.53
2019-03-23T01:53:46.117Z,34.13
2019-03-23T01:56:13.452Z,34.75
2019-03-23T01:58:40.497Z,35.20
2019-03-23T02:01:07.547Z,36.45
2019-03-23T02:03:34.906Z,35.15
2019-03-23T02:06:01.964Z,33.35
2019-03-23T02:08:29.009Z,34.58
2019-03-23T02:10:56.373Z,36.48
2019-03-23T02:13:23.435Z,35.88
2019-03-23T02:15:50.760Z,41.83
2019-03-23T02:18:18.133Z,35.52
2019-03-23T02:20:45.166Z,41.55
2019-03-23T02:23:12.221Z,37.60
2019-03-23T02:25:39.278Z,34.70
2019-03-23T02:28:06.330Z,36.42
2019-03-23T02:30:33.635Z,36.70
2019-03-23T02:33:00.695Z,38.50
2019-03-23T02:35:27.725Z,35.43
2019-03-23T02:37:54.784Z,34.85
2019-03-23T02:40:21.823Z,39.30
2019-03-23T02:42:49.119Z,37.65
2019-03-23T02:45:16.162Z,37.60
2019-03-23T02:47:43.470Z,39.75
2019-03-23T02:50:10.858Z,39.25
2019-03-23T02:52:37.913Z,38.70
2019-03-23T02:55:04.959Z,37.55
2019-03-23T02:57:32.313Z,39.90
2019-03-23T02:59:59.357Z,40.00
2019-03-23T03:02:26.733Z,36.15
2019-03-23T03:04:54.718Z,38.23
2019-03-23T03:07:22.013Z,41.85
2019-03-23T03:09:49.321Z,41.33
2019-03-23T03:12:16.612Z,38.10
2019-03-23T03:14:43.654Z,40.25
2019-03-23T03:17:10.724Z,39.42
2019-03-23T03:19:38.005Z,40.60
2019-03-23T03:22:05.301Z,37.45
2019-03-23T03:24:32.339Z,41.00
2019-03-23T03:26:59.751Z,39.75
2019-03-23T03:29:26.788Z,36.83
2019-03-23T03:31:53.870Z,43.95
2019-03-23T03:34:21.149Z,41.63
2019-03-23T03:36:48.454Z,38.70
2019-03-23T03:39:15.492Z,41.80
2019-03-23T03:41:42.866Z,45.28
2019-03-23T03:44:09.915Z,43.58
2019-03-23T03:46:36.960Z,47.35
2019-03-23T03:49:12.378Z,46.20
2019-03-23T03:51:33.052Z,48.17
2019-03-23T03:54:00.457Z,112.28
2019-03-23T03:56:27.828Z,48.55
2019-03-23T03:58:54.885Z,45.25
2019-03-23T04:01:21.923Z,42.67
2019-03-23T04:03:49.230Z,42.40
2019-03-23T04:06:16.615Z,36.48
2019-03-23T04:08:43.680Z,42.35
2019-03-23T04:11:11.022Z,42.80
2019-03-23T04:13:38.074Z,41.53
2019-03-23T04:16:05.711Z,39.45
2019-03-23T04:18:33.071Z,43.42
2019-03-23T04:21:00.360Z,43.55
2019-03-23T04:23:27.695Z,42.50
2019-03-23T04:25:54.995Z,40.50
2019-03-23T04:28:22.043Z,41.15
2019-03-23T04:30:49.349Z,38.92
2019-03-23T04:33:16.726Z,42.38
2019-03-23T04:35:43.760Z,45.00
2019-03-23T04:40:43.706Z,38.53
2019-03-23T04:43:10.758Z,46.08
2019-03-23T04:45:38.867Z,42.85
2019-03-23T04:48:05.923Z,39.48
2019-03-23T04:50:33.314Z,44.27
2019-03-23T04:53:00.661Z,48.73
2019-03-23T04:55:27.699Z,45.17
2019-03-23T04:57:54.998Z,41.92
2019-03-23T05:00:22.036Z,41.53
2019-03-23T05:02:49.088Z,45.65
2019-03-23T05:05:16.133Z,40.17
2019-03-23T05:07:43.462Z,44.63
2019-03-23T05:10:11.842Z,38.70
2019-03-23T05:12:38.881Z,44.88
2019-03-23T05:15:05.938Z,45.48
2019-03-23T05:17:32.973Z,41.50
2019-03-23T05:20:00.357Z,41.55
2019-03-23T05:22:27.387Z,41.25
2019-03-23T05:24:54.746Z,42.90
2019-03-23T05:27:22.098Z,38.15
2019-03-23T05:29:49.453Z,38.02
2019-03-23T05:32:16.810Z,39.25
2019-03-23T05:34:43.868Z,43.63
2019-03-23T05:37:11.229Z,40.48
2019-03-23T05:39:38.286Z,37.88
2019-03-23T05:42:05.630Z,41.53
2019-03-23T05:44:33.755Z,45.75
2019-03-23T05:47:01.046Z,36.17
2019-03-23T05:49:28.368Z,40.92
2019-03-23T05:51:55.761Z,34.27
2019-03-23T05:54:22.811Z,35.40
2019-03-23T05:56:49.855Z,36.15
2019-03-23T05:59:16.913Z,37.98
2019-03-23T06:01:43.963Z,36.63
2019-03-23T06:09:36.164Z,34.00
2019-03-23T06:12:07.775Z,36.95
2019-03-23T06:17:08.668Z,33.58
2019-03-23T06:19:38.263Z,31.65
2019-03-23T06:22:13.504Z,33.92
2019-03-23T06:24:42.013Z,32.13
2019-03-23T06:27:16.137Z,32.50
2019-03-23T06:32:24.788Z,34.15
2019-03-23T06:34:52.219Z,29.52
2019-03-23T06:40:08.957Z,31.82
2019-03-23T06:42:59.750Z,30.70
2019-03-23T06:45:24.170Z,30.37
2019-03-23T06:47:54.563Z,28.40
2019-03-23T06:52:58.349Z,29.87
2019-03-23T06:55:30.355Z,29.67
2019-03-23T06:57:58.502Z,27.10
2019-03-23T07:08:31.363Z,30.25
2019-03-23T07:10:54.629Z,30.52
2019-03-23T07:13:22.563Z,29.20
2019-03-23T07:15:51.141Z,27.87
2019-03-23T07:18:29.755Z,29.15
2019-03-23T07:20:56.821Z,31.17
2019-03-23T07:23:25.097Z,27.75
2019-03-23T07:25:53.288Z,30.10
2019-03-23T07:31:09.357Z,27.77
2019-03-23T07:33:43.681Z,28.35
2019-03-23T07:36:15.456Z,26.95
2019-03-23T07:41:11.828Z,29.32
2019-03-23T07:43:42.244Z,30.65
2019-03-23T07:46:11.456Z,32.95
2019-03-23T07:48:50.659Z,32.88
2019-03-23T07:56:27.872Z,32.48
2019-03-23T07:59:03.301Z,33.13
2019-03-23T08:01:35.310Z,29.37
2019-03-23T08:04:13.721Z,32.98
2019-03-23T08:06:46.721Z,37.28
2019-03-23T08:09:25.833Z,32.38
2019-03-23T08:11:54.276Z,32.85
2019-03-23T08:14:25.239Z,32.03
2019-03-23T08:19:28.066Z,29.90
2019-03-23T08:21:55.111Z,31.70
2019-03-23T08:24:31.254Z,30.55
2019-03-23T08:29:40.224Z,27.73
2019-03-23T08:32:14.607Z,28.52
2019-03-23T08:34:42.053Z,26.97
2019-03-23T08:37:22.586Z,27.65
2019-03-23T08:39:55.251Z,29.05
2019-03-23T08:42:23.183Z,27.87
2019-03-23T08:44:54.925Z,29.02
2019-03-23T08:47:36.600Z,25.68
2019-03-23T08:50:04.195Z,34.55
2019-03-23T08:52:48.912Z,32.10
2019-03-23T08:55:16.156Z,30.95
2019-03-23T08:57:45.346Z,36.13
2019-03-23T09:02:54.883Z,31.33
2019-03-23T09:05:22.149Z,32.53
2019-03-23T09:07:49.272Z,32.28
2019-03-23T09:12:51.266Z,36.63
2019-03-23T09:18:10.151Z,35.52
2019-03-23T09:23:26.699Z,33.85
2019-03-23T09:28:33.367Z,32.17
2019-03-23T09:31:04.510Z,31.33
2019-03-23T09:33:31.930Z,32.38
2019-03-23T09:35:59.272Z,30.75
2019-03-23T09:38:26.623Z,34.25
2019-03-23T09:40:53.681Z,34.33
2019-03-23T09:43:20.796Z,32.98
2019-03-23T09:45:47.850Z,35.68
2019-03-23T09:48:15.227Z,38.10
2019-03-23T09:50:42.578Z,38.25
2019-03-23T09:53:09.867Z,35.55
2019-03-23T09:55:37.188Z,35.98
2019-03-23T09:58:04.235Z,35.08
2019-03-23T10:00:31.303Z,38.88
2019-03-23T10:02:58.349Z,34.92
2019-03-23T10:05:25.687Z,41.13
2019-03-23T10:07:52.733Z,33.83
2019-03-23T10:10:22.003Z,34.15
2019-03-23T10:12:48.535Z,35.58
2019-03-23T10:15:15.956Z,40.20
2019-03-23T10:17:43.007Z,36.88
2019-03-23T10:20:10.056Z,34.75
2019-03-23T10:22:37.365Z,38.78
2019-03-23T10:25:05.375Z,35.48
2019-03-23T10:27:32.703Z,33.23
2019-03-23T10:30:00.116Z,36.53
2019-03-23T10:32:27.459Z,31.17
2019-03-23T10:34:54.506Z,33.65
2019-03-23T10:37:22.640Z,31.82
2019-03-23T10:39:49.687Z,31.35
2019-03-23T10:42:16.766Z,33.08
2019-03-23T10:44:44.089Z,35.30
2019-03-23T10:47:11.411Z,36.85
2019-03-23T10:49:38.699Z,36.98
2019-03-23T10:52:05.995Z,39.15
2019-03-23T10:54:33.303Z,37.13
2019-03-23T10:57:00.607Z,43.73
2019-03-23T10:59:28.134Z,39.53
2019-03-23T11:01:55.160Z,35.85
2019-03-23T11:04:22.200Z,41.75
2019-03-23T11:06:49.565Z,36.83
2019-03-23T11:09:16.612Z,37.23
2019-03-23T11:11:43.666Z,36.65
2019-03-23T11:14:11.038Z,35.58
2019-03-23T11:16:38.390Z,36.38
2019-03-23T11:19:13.365Z,35.28
2019-03-23T11:21:34.826Z,34.10
2019-03-23T11:24:01.869Z,34.27
2019-03-23T11:26:28.936Z,34.35
2019-03-23T11:28:55.975Z,33.38
2019-03-23T11:34:04.508Z,33.42
2019-03-23T11:36:31.564Z,32.93
2019-03-23T11:38:58.908Z,30.85
2019-03-23T11:41:26.214Z,28.92
2019-03-23T11:43:53.258Z,30.88
2019-03-23T11:46:20.304Z,28.55
2019-03-23T11:48:50.597Z,29.87
2019-03-23T11:51:17.803Z,31.33
2019-03-23T11:53:45.111Z,32.48
2019-03-23T11:56:12.446Z,35.08
2019-03-23T11:58:39.843Z,35.60
2019-03-23T12:01:06.887Z,37.67
2019-03-23T12:03:33.956Z,35.68
2019-03-23T12:06:01.002Z,35.05
2019-03-23T12:08:28.060Z,32.30
2019-03-23T12:11:02.866Z,30.52
2019-03-23T12:16:13.007Z,32.17
2019-03-23T12:18:40.289Z,32.45
2019-03-23T12:21:22.681Z,32.25
2019-03-23T12:23:50.112Z,30.82
2019-03-23T12:26:17.805Z,31.95
2019-03-23T12:28:44.858Z,31.82
2019-03-23T12:31:22.946Z,33.20
2019-03-23T12:39:05.310Z,39.45
2019-03-23T12:41:42.986Z,36.45
2019-03-23T12:44:11.179Z,37.83
2019-03-23T12:46:48.491Z,41.53
2019-03-23T12:49:15.114Z,37.75
2019-03-23T12:51:51.357Z,36.38
2019-03-23T12:54:20.831Z,33.28
2019-03-23T12:56:59.373Z,36.95
2019-03-23T12:59:27.011Z,36.63
2019-03-23T13:02:05.246Z,34.90
2019-03-23T13:04:33.452Z,33.80
2019-03-23T13:07:07.640Z,32.33
2019-03-23T13:12:21.984Z,36.17
2019-03-23T13:14:53.301Z,33.70
2019-03-23T13:20:04.461Z,40.50
2019-03-23T13:22:36.028Z,39.60
2019-03-23T13:25:03.078Z,37.25
2019-03-23T13:27:31.619Z,34.48
2019-03-23T13:29:58.786Z,37.80
2019-03-23T13:32:27.244Z,38.60
2019-03-23T13:35:07.934Z,39.78
2019-03-23T13:40:13.702Z,38.60
2019-03-23T13:48:00.831Z,40.25
2019-03-23T13:50:27.877Z,42.58
2019-03-23T13:52:55.355Z,43.68
2019-03-23T13:55:24.843Z,45.12
2019-03-23T13:57:56.753Z,44.85
2019-03-23T14:03:27.683Z,40.00
2019-03-23T14:06:13.780Z,42.43
2019-03-23T14:08:46.894Z,43.13
2019-03-23T14:11:27.235Z,48.17
2019-03-23T14:13:55.431Z,47.80
2019-03-23T14:16:23.191Z,42.15
2019-03-23T14:18:51.370Z,43.48
2019-03-23T14:21:31.729Z,54.35
2019-03-23T14:26:38.504Z,45.65
2019-03-23T14:29:05.779Z,43.52
2019-03-23T14:31:34.214Z,40.38
2019-03-23T14:34:06.322Z,49.13
2019-03-23T14:36:34.578Z,45.88
2019-03-23T14:39:06.529Z,45.38
2019-03-23T14:41:47.259Z,47.33
2019-03-23T14:44:15.664Z,43.92
2019-03-23T14:46:45.914Z,42.78
2019-03-23T14:51:50.014Z,45.48
2019-03-23T15:04:58.976Z,43.50
2019-03-23T15:07:32.029Z,41.65
2019-03-23T15:09:59.302Z,44.08
2019-03-23T15:18:07.755Z,50.60
2019-03-23T15:23:08.464Z,46.15
2019-03-23T15:25:35.528Z,49.35
2019-03-23T15:28:08.628Z,45.85
2019-03-23T15:30:40.257Z,46.53
2019-03-23T15:33:14.503Z,48.42
2019-03-23T15:38:18.782Z,44.55
2019-03-23T15:40:47.300Z,42.98
2019-03-23T15:43:22.385Z,41.13
2019-03-23T15:48:23.940Z,45.88
2019-03-23T15:56:14.224Z,43.78
2019-03-23T16:01:30.720Z,47.98
2019-03-23T16:04:08.137Z,49.98
2019-03-23T16:09:11.651Z,51.85
2019-03-23T16:14:33.345Z,46.37
2019-03-23T16:17:07.335Z,39.27
2019-03-23T16:19:40.604Z,42.83
2019-03-23T16:22:12.084Z,41.50
2019-03-23T16:27:14.700Z,45.10
2019-03-23T16:29:46.321Z,42.88
2019-03-23T16:32:26.477Z,39.70
2019-03-23T16:34:55.963Z,45.38
2019-03-23T16:37:40.546Z,45.03
2019-03-23T16:40:08.099Z,45.00
2019-03-23T16:42:50.451Z,37.95
2019-03-23T16:45:22.190Z,44.03
2019-03-23T16:48:00.389Z,37.33
2019-03-23T16:50:32.628Z,36.28
2019-03-23T16:53:06.776Z,34.03
2019-03-23T16:55:34.066Z,40.95
2019-03-23T16:58:05.239Z,40.20
2019-03-23T17:00:37.030Z,40.12
2019-03-23T17:03:04.274Z,41.73
2019-03-23T17:05:31.547Z,38.33
2019-03-23T17:08:05.305Z,41.53
2019-03-23T17:10:33.655Z,38.08
2019-03-23T17:13:06.701Z,35.85
2019-03-23T17:15:38.477Z,40.85
2019-03-23T17:18:13.798Z,38.70
2019-03-23T17:20:42.002Z,39.53
2019-03-23T17:23:22.232Z,41.23
2019-03-23T17:25:53.657Z,40.20
2019-03-23T17:31:11.120Z,38.48
2019-03-23T17:36:16.920Z,147.20
2019-03-23T17:38:45.075Z,52.50
2019-03-23T17:41:13.647Z,45.23
2019-03-23T17:43:45.007Z,37.10
2019-03-23T17:46:14.223Z,40.23
2019-03-23T17:48:48.321Z,33.70
2019-03-23T17:51:15.596Z,34.13
2019-03-23T17:56:36.180Z,37.93
2019-03-23T17:59:04.644Z,39.67
2019-03-23T18:01:36.756Z,36.98
2019-03-23T18:04:06.220Z,36.88
2019-03-23T18:06:33.409Z,38.60
2019-03-23T18:09:01.944Z,42.50
2019-03-23T18:14:21.130Z,40.08
2019-03-23T18:16:48.332Z,37.25
2019-03-23T18:19:28.875Z,36.93
2019-03-23T18:21:58.451Z,38.50
2019-03-23T18:24:31.880Z,39.40
2019-03-23T18:26:59.228Z,39.85
2019-03-23T18:29:33.216Z,43.02
2019-03-23T18:34:51.890Z,41.00
2019-03-23T18:37:20.517Z,43.78
2019-03-23T18:39:48.679Z,40.15
2019-03-23T18:44:54.927Z,38.92
2019-03-23T18:47:26.527Z,38.58
2019-03-23T18:49:55.711Z,40.67
2019-03-23T18:54:56.682Z,43.05
2019-03-23T19:00:10.538Z,40.70
2019-03-23T19:02:38.718Z,43.58
2019-03-23T19:05:16.194Z,38.92
2019-03-23T19:15:48.334Z,44.45
2019-03-23T19:18:16.611Z,46.80
2019-03-23T19:20:46.911Z,39.40
2019-03-23T19:23:17.469Z,46.85
2019-03-23T19:28:11.943Z,40.55
2019-03-23T19:30:41.148Z,39.25
2019-03-23T19:35:43.044Z,40.20
2019-03-23T19:38:11.219Z,41.37
2019-03-23T19:40:47.968Z,42.95
2019-03-23T19:43:16.179Z,44.93
2019-03-23T19:45:45.673Z,43.25
2019-03-23T19:48:15.779Z,41.30
2019-03-23T19:50:44.084Z,42.78
2019-03-23T19:53:16.238Z,47.70
2019-03-23T19:55:44.691Z,42.70
2019-03-23T19:58:12.838Z,54.38
2019-03-23T20:00:40.043Z,49.95
2019-03-23T20:03:11.920Z,47.80
2019-03-23T20:05:49.290Z,103.12
2019-03-23T20:11:12.835Z,54.90
2019-03-23T20:13:40.954Z,49.75
2019-03-23T20:16:09.110Z,46.40
2019-03-23T20:21:08.614Z,51.20
2019-03-23T20:28:48.738Z,49.42
2019-03-23T20:31:25.188Z,47.62
2019-03-23T20:33:54.772Z,51.02
2019-03-23T20:39:09.446Z,49.27
2019-03-23T20:44:09.416Z,55.67
2019-03-23T20:46:40.877Z,60.88
2019-03-23T20:49:12.031Z,61.48
2019-03-23T20:51:55.823Z,57.78
2019-03-23T20:54:23.396Z,64.25
2019-03-23T20:56:54.420Z,60.52
2019-03-23T20:59:22.004Z,60.88
2019-03-23T21:01:50.561Z,59.13
2019-03-23T21:04:17.759Z,64.58
2019-03-23T21:06:44.993Z,62.88
2019-03-23T21:09:17.341Z,55.95
2019-03-23T21:11:45.031Z,58.87
2019-03-23T21:14:20.114Z,55.43
2019-03-23T21:16:45.973Z,56.58
2019-03-23T21:19:15.210Z,56.48
2019-03-23T21:21:50.227Z,56.63
2019-03-23T21:27:00.206Z,59.53
2019-03-23T21:29:28.434Z,60.03
2019-03-23T21:32:00.637Z,63.35
2019-03-23T21:37:06.625Z,61.20
2019-03-23T21:39:34.258Z,57.08
2019-03-23T21:42:15.550Z,60.05
2019-03-23T21:44:43.743Z,59.45
2019-03-23T21:47:17.300Z,59.20
2019-03-23T21:49:45.525Z,56.15
2019-03-23T21:52:16.253Z,64.85
2019-03-23T21:54:44.435Z,60.17
2019-03-23T21:57:12.475Z,62.03
2019-03-23T21:59:41.696Z,63.35
2019-03-23T22:02:09.991Z,63.87
2019-03-23T22:04:38.151Z,57.10
2019-03-23T22:07:15.417Z,58.45
2019-03-23T22:09:46.847Z,59.98
2019-03-23T22:12:17.193Z,64.70
2019-03-23T22:14:44.626Z,58.33
2019-03-23T22:17:19.597Z,63.00
2019-03-23T22:19:47.778Z,81.60
2019-03-23T22:22:16.035Z,146.45
2019-03-23T22:24:44.489Z,79.25
2019-03-23T22:27:12.228Z,70.78
2019-03-23T22:29:39.282Z,111.05
2019-03-23T22:32:20.612Z,65.40
2019-03-23T22:37:23.178Z,64.27
2019-03-23T22:42:26.841Z,67.35
2019-03-23T22:50:17.685Z,60.75
2019-03-23T22:52:51.337Z,60.65
2019-03-23T22:55:22.222Z,63.42
2019-03-23T22:57:50.384Z,63.45
2019-03-23T23:00:23.749Z,67.27
2019-03-23T23:03:03.802Z,58.20
2019-03-23T23:10:45.778Z,64.58
2019-03-23T23:15:50.833Z,62.83
2019-03-23T23:18:26.050Z,62.25
2019-03-23T23:20:54.245Z,64.45
2019-03-23T23:23:21.478Z,72.72
2019-03-23T23:25:50.058Z,67.65
2019-03-23T23:28:25.099Z,71.90
2019-03-23T23:30:52.150Z,67.15
2019-03-23T23:33:26.571Z,68.70
2019-03-23T23:35:58.448Z,66.50
2019-03-23T23:41:25.062Z,65.97
2019-03-23T23:46:28.695Z,68.17
2019-03-23T23:48:56.690Z,71.15
2019-03-23T23:51:26.155Z,67.17
2019-03-23T23:53:53.845Z,77.15
2019-03-23T23:56:23.373Z,63.08
2019-03-23T23:58:55.302Z,68.95
